Time;durP1;ratioP1;P1;durP2;ratioP2;P2;SDS_P1;SDS_P2;PMS_P1;PMS_P2;Temp;Humidity;BMP_temperature;BMP_pressure;BME280_temperature;BME280_humidity;BME280_pressure;Samples;Min_cycle;Max_cycle;Signal;HPM_P1;HPM_P2
2023/10/03 00:01:37;;;;;;;44.95;18.60;;;;;;;17.71;100.00;100945.66;5022881;28;20461;-73
2023/10/03 00:04:03;;;;;;;41.72;17.63;;;;;;;17.70;100.00;100938.38;5025909;28;20127;-72
2023/10/03 00:06:28;;;;;;;35.50;16.80;;;;;;;17.72;100.00;100935.94;5012707;28;20034;-72
2023/10/03 00:08:54;;;;;;;42.70;19.85;;;;;;;17.73;100.00;100931.06;5021953;28;20126;-73
2023/10/03 00:11:21;;;;;;;32.92;15.02;;;;;;;17.73;100.00;100926.22;5027587;28;20557;-72
2023/10/03 00:13:47;;;;;;;35.67;13.77;;;;;;;17.74;100.00;100921.34;5030774;28;20083;-72
2023/10/03 00:16:12;;;;;;;35.97;17.27;;;;;;;17.73;100.00;100908.41;5028604;28;20021;-72
2023/10/03 00:18:38;;;;;;;38.95;16.15;;;;;;;17.73;100.00;100914.06;5022729;28;20037;-73
2023/10/03 00:21:03;;;;;;;36.78;16.17;;;;;;;17.72;100.00;100901.16;5022924;28;20029;-74
2023/10/03 00:23:30;;;;;;;31.85;14.93;;;;;;;17.72;100.00;100884.19;5017326;28;20017;-73
2023/10/03 00:25:59;;;;;;;33.92;16.10;;;;;;;17.67;100.00;100874.94;5023402;28;20072;-73
2023/10/03 00:28:26;;;;;;;34.92;15.15;;;;;;;17.72;100.00;100878.50;5019097;28;20037;-76
2023/10/03 00:30:52;;;;;;;39.03;16.40;;;;;;;17.74;100.00;100876.06;5020630;28;20026;-77
2023/10/03 00:33:17;;;;;;;38.80;16.05;;;;;;;17.64;100.00;100872.94;5018521;28;20556;-76
2023/10/03 00:35:43;;;;;;;35.17;16.35;;;;;;;17.72;100.00;100872.84;5021455;28;20029;-76
2023/10/03 00:38:14;;;;;;;36.47;15.75;;;;;;;17.74;100.00;100861.91;5027229;28;20126;-77
2023/10/03 00:40:43;;;;;;;32.73;15.57;;;;;;;17.76;100.00;100845.28;5032414;28;20367;-77
2023/10/03 00:43:08;;;;;;;37.25;15.32;;;;;;;17.79;100.00;100835.94;5025535;28;20168;-77
2023/10/03 00:45:34;;;;;;;38.15;15.52;;;;;;;17.74;100.00;100799.63;5023409;28;20108;-76
2023/10/03 00:48:01;;;;;;;36.75;16.17;;;;;;;17.72;100.00;100796.41;5023264;28;20017;-77
2023/10/03 00:50:29;;;;;;;35.13;15.23;;;;;;;17.72;100.00;100793.59;5028911;28;20029;-76
2023/10/03 00:53:12;;;;;;;33.00;15.70;;;;;;;17.71;100.00;100789.13;5015662;28;20037;-77
2023/10/03 00:55:39;;;;;;;36.65;15.07;;;;;;;17.70;100.00;100813.03;5018611;28;20026;-76
2023/10/03 01:00:40;;;;;;;32.45;15.30;;;;;;;17.66;100.00;100796.88;5035185;28;20037;-76
2023/10/03 01:03:23;;;;;;;38.80;16.25;;;;;;;17.63;100.00;100803.41;5021112;28;20498;-77
2023/10/03 01:05:49;;;;;;;40.45;15.60;;;;;;;17.60;100.00;100787.31;5031246;28;20033;-77
2023/10/03 01:08:15;;;;;;;42.00;16.80;;;;;;;17.61;100.00;100777.56;5039397;28;20431;-76
2023/10/03 01:10:40;;;;;;;37.65;15.82;;;;;;;17.60;100.00;100778.00;5015498;28;20432;-77
2023/10/03 01:13:11;;;;;;;33.50;13.98;;;;;;;17.62;100.00;100759.34;5033167;28;20120;-77
2023/10/03 01:15:37;;;;;;;35.65;14.00;;;;;;;17.64;100.00;100758.94;5022057;28;20030;-76
2023/10/03 01:18:03;;;;;;;38.22;16.33;;;;;;;17.60;100.00;100739.19;5029003;28;20041;-76
2023/10/03 01:20:29;;;;;;;37.85;15.10;;;;;;;17.61;100.00;100743.63;5024082;28;20033;-76
2023/10/03 01:22:55;;;;;;;36.45;14.75;;;;;;;17.62;100.00;100722.56;5029361;28;20053;-76
2023/10/03 01:25:22;;;;;;;32.03;12.93;;;;;;;17.62;100.00;100728.22;5021715;28;20067;-76
2023/10/03 01:27:47;;;;;;;31.08;14.07;;;;;;;17.62;100.00;100714.06;5020134;28;20045;-76
2023/10/03 01:30:13;;;;;;;37.75;14.27;;;;;;;17.62;100.00;100687.81;5025292;28;20585;-76
2023/10/03 01:32:48;;;;;;;27.52;12.52;;;;;;;17.61;100.00;100698.34;5024232;28;20090;-77
2023/10/03 01:35:14;;;;;;;30.60;12.45;;;;;;;17.58;100.00;100693.53;5032292;28;20033;-76
2023/10/03 01:37:39;;;;;;;28.23;11.38;;;;;;;17.61;100.00;100689.03;5025001;28;20401;-76
2023/10/03 01:40:14;;;;;;;31.40;13.50;;;;;;;17.56;100.00;100679.03;5022998;28;20030;-75
2023/10/03 01:42:45;;;;;;;32.92;14.30;;;;;;;17.57;100.00;100682.66;5027463;28;20036;-75
2023/10/03 01:45:17;;;;;;;41.63;15.68;;;;;;;17.59;100.00;100688.69;5028119;28;20095;-75
2023/10/03 01:47:48;;;;;;;34.13;13.98;;;;;;;17.54;100.00;100675.81;5016972;28;20075;-75
2023/10/03 01:50:14;;;;;;;32.90;13.43;;;;;;;17.57;100.00;100660.81;5026443;28;20128;-73
2023/10/03 01:52:41;;;;;;;41.83;15.00;;;;;;;17.55;100.00;100654.78;5025242;28;20116;-73
2023/10/03 01:55:08;;;;;;;34.95;13.07;;;;;;;17.55;100.00;100643.44;5017118;28;20044;-73
2023/10/03 01:57:34;;;;;;;32.88;13.88;;;;;;;17.54;100.00;100653.19;5025211;28;20037;-72
2023/10/03 01:59:59;;;;;;;40.97;13.77;;;;;;;17.56;100.00;100647.91;5028497;28;20401;-74
2023/10/03 02:02:24;;;;;;;35.05;13.35;;;;;;;17.55;100.00;100637.78;5023171;28;20025;-73
2023/10/03 02:04:50;;;;;;;35.88;13.32;;;;;;;17.50;100.00;100634.66;5030092;28;20041;-72
2023/10/03 02:07:16;;;;;;;36.22;12.93;;;;;;;17.53;100.00;100619.66;5023490;28;20033;-72
2023/10/03 02:09:43;;;;;;;41.80;15.10;;;;;;;17.55;100.00;100608.69;5027374;28;20483;-73
2023/10/03 02:12:10;;;;;;;38.60;13.35;;;;;;;17.48;100.00;100609.63;5024860;28;20038;-72
2023/10/03 02:14:39;;;;;;;34.58;12.20;;;;;;;17.49;100.00;100597.06;5021028;28;20025;-73
2023/10/03 02:17:05;;;;;;;37.58;13.73;;;;;;;17.50;100.00;100595.84;5020467;28;20045;-72
2023/10/03 02:19:31;;;;;;;40.92;14.73;;;;;;;17.52;100.00;100581.25;5029721;28;20072;-71
2023/10/03 02:21:59;;;;;;;34.35;12.70;;;;;;;17.49;100.00;100599.91;5031624;28;20537;-72
2023/10/03 02:24:25;;;;;;;30.92;12.88;;;;;;;17.46;100.00;100595.13;5025062;28;20110;-72
2023/10/03 02:26:51;;;;;;;43.63;15.18;;;;;;;17.46;100.00;100587.44;5020744;28;20045;-73
2023/10/03 02:29:16;;;;;;;34.90;13.02;;;;;;;17.47;100.00;100579.72;5022587;28;20044;-72
2023/10/03 02:31:43;;;;;;;33.85;14.32;;;;;;;17.45;100.00;100582.19;5021325;28;20033;-75
2023/10/03 02:34:08;;;;;;;36.15;13.55;;;;;;;17.42;100.00;100583.06;5024164;28;20514;-73
2023/10/03 02:36:34;;;;;;;31.92;12.23;;;;;;;17.41;100.00;100572.97;5009612;28;20039;-73
2023/10/03 02:39:00;;;;;;;38.80;13.50;;;;;;;17.37;100.00;100580.72;5016558;28;20042;-73
2023/10/03 02:41:26;;;;;;;40.88;13.30;;;;;;;17.36;100.00;100574.28;5014943;28;20384;-73
2023/10/03 02:43:51;;;;;;;34.03;13.10;;;;;;;17.41;100.00;100576.63;5027458;28;20032;-73
2023/10/03 02:46:17;;;;;;;33.40;13.43;;;;;;;17.42;100.00;100561.22;5028513;28;20025;-73
2023/10/03 02:48:43;;;;;;;36.30;13.27;;;;;;;17.43;100.00;100567.69;5032226;28;20025;-76
2023/10/03 02:51:10;;;;;;;34.80;12.30;;;;;;;17.38;100.00;100566.16;5020003;28;20030;-77
2023/10/03 02:53:35;;;;;;;34.95;12.50;;;;;;;17.43;100.00;100568.50;5020149;28;20029;-76
2023/10/03 02:56:03;;;;;;;31.58;12.95;;;;;;;17.41;100.00;100553.16;5032029;28;20070;-76
2023/10/03 02:58:29;;;;;;;34.65;13.85;;;;;;;17.38;100.00;100557.66;5026494;28;20056;-74
2023/10/03 03:00:56;;;;;;;38.95;12.75;;;;;;;17.37;100.00;100555.25;5023328;28;20463;-75
2023/10/03 03:03:23;;;;;;;33.40;13.20;;;;;;;17.35;100.00;100552.88;5020348;28;20022;-75
2023/10/03 03:05:49;;;;;;;34.00;13.15;;;;;;;17.31;100.00;100559.81;5019739;28;20470;-74
2023/10/03 03:10:57;;;;;;;34.75;14.60;;;;;;;17.32;100.00;100535.97;5014634;28;20056;-74
2023/10/03 03:13:35;;;;;;;37.65;12.45;;;;;;;17.26;100.00;100563.94;5020920;28;20033;-74
2023/10/03 03:16:03;;;;;;;31.98;12.68;;;;;;;17.31;100.00;100560.63;5015528;28;20530;-74
2023/10/03 03:18:40;;;;;;;33.17;14.13;;;;;;;17.32;100.00;100555.78;5011386;28;20032;-74
2023/10/03 03:21:15;;;;;;;40.28;14.65;;;;;;;17.27;100.00;100540.91;5026687;28;20079;-74
2023/10/03 03:23:43;;;;;;;30.80;12.98;;;;;;;17.33;100.00;100531.91;5016155;28;20033;-75
2023/10/03 03:26:20;;;;;;;29.65;12.48;;;;;;;17.29;100.00;100526.31;5022712;28;20098;-73
2023/10/03 03:28:49;;;;;;;28.58;12.20;;;;;;;17.27;100.00;100521.09;5021453;28;20037;-75
2023/10/03 03:31:21;;;;;;;35.55;13.13;;;;;;;17.27;100.00;100517.47;5017781;28;20103;-74
2023/10/03 03:33:49;;;;;;;35.03;12.90;;;;;;;17.32;100.00;100504.84;5016060;28;20030;-74
2023/10/03 03:36:17;;;;;;;34.58;12.55;;;;;;;17.33;100.00;100500.78;5031788;28;20029;-75
2023/10/03 03:38:47;;;;;;;31.77;11.57;;;;;;;17.36;100.00;100505.59;5028905;28;20547;-75
2023/10/03 03:41:13;;;;;;;30.50;12.13;;;;;;;17.54;100.00;100499.56;5021155;28;20494;-75
2023/10/03 03:43:38;;;;;;;26.63;11.13;;;;;;;17.62;100.00;100496.13;5024404;28;20045;-75
2023/10/03 03:46:04;;;;;;;35.50;14.00;;;;;;;17.66;100.00;100490.41;5016623;28;20033;-74
2023/10/03 03:48:33;;;;;;;32.33;11.23;;;;;;;17.85;100.00;100497.31;5019743;28;20025;-74
2023/10/03 03:50:59;;;;;;;32.28;11.45;;;;;;;17.86;100.00;100493.28;5020999;28;20104;-74
2023/10/03 03:53:25;;;;;;;28.60;11.82;;;;;;;17.96;100.00;100495.06;5017101;28;20033;-74
2023/10/03 03:55:51;;;;;;;25.45;11.48;;;;;;;17.93;100.00;100481.00;5027341;28;20427;-74
2023/10/03 03:58:18;;;;;;;29.38;11.63;;;;;;;18.07;100.00;100492.78;5027206;28;20106;-75
2023/10/03 04:00:52;;;;;;;24.67;10.63;;;;;;;18.06;100.00;100490.38;5028867;28;20035;-74
2023/10/03 04:03:19;;;;;;;32.17;11.82;;;;;;;18.06;100.00;100502.50;5022971;28;20397;-74
2023/10/03 04:05:46;;;;;;;33.47;11.30;;;;;;;18.06;100.00;100496.84;5027208;28;20430;-74
2023/10/03 04:08:12;;;;;;;30.27;11.60;;;;;;;18.05;100.00;100500.13;5018667;28;20029;-75
2023/10/03 04:10:38;;;;;;;31.10;10.65;;;;;;;18.11;100.00;100497.56;5031208;28;20079;-74
2023/10/03 04:13:08;;;;;;;24.40;9.95;;;;;;;18.19;100.00;100496.94;5016101;28;20030;-75
2023/10/03 04:15:33;;;;;;;28.05;10.48;;;;;;;18.25;100.00;100497.25;5029131;28;20489;-75
2023/10/03 04:17:58;;;;;;;27.40;10.10;;;;;;;18.34;100.00;100497.44;5022588;28;20103;-75
2023/10/03 04:20:39;;;;;;;27.77;10.90;;;;;;;18.34;100.00;100493.78;5014257;28;20044;-75
2023/10/03 04:23:06;;;;;;;22.55;9.57;;;;;;;18.22;100.00;100500.97;5020870;28;20049;-75
2023/10/03 04:25:33;;;;;;;22.55;9.23;;;;;;;18.28;100.00;100502.03;5007802;28;20115;-75
2023/10/03 04:27:58;;;;;;;21.98;9.10;;;;;;;18.37;100.00;100510.72;5021090;28;20033;-75
2023/10/03 04:30:26;;;;;;;25.98;9.43;;;;;;;18.24;100.00;100510.59;5018418;28;20029;-75
2023/10/03 04:32:55;;;;;;;28.27;12.35;;;;;;;18.33;100.00;100518.50;5015225;28;20037;-75
2023/10/03 04:35:23;;;;;;;28.35;10.15;;;;;;;18.37;100.00;100527.72;5027227;28;20080;-75
2023/10/03 04:37:54;;;;;;;25.90;10.30;;;;;;;18.45;100.00;100526.31;5019185;28;20056;-75
2023/10/03 04:40:22;;;;;;;29.50;11.90;;;;;;;18.47;100.00;100526.66;5034983;28;20060;-75
2023/10/03 04:42:52;;;;;;;26.83;8.52;;;;;;;18.47;100.00;100526.66;5018602;28;22049;-75
2023/10/03 04:45:20;;;;;;;29.35;9.90;;;;;;;18.46;100.00;100530.72;5016239;28;20482;-75
2023/10/03 04:47:47;;;;;;;26.80;10.60;;;;;;;18.41;100.00;100528.44;5032075;28;20572;-75
2023/10/03 04:50:17;;;;;;;27.33;9.95;;;;;;;18.44;100.00;100532.41;5031652;28;20041;-75
2023/10/03 04:52:43;;;;;;;24.92;8.40;;;;;;;18.46;100.00;100544.09;5020167;28;20025;-75
2023/10/03 04:55:09;;;;;;;24.13;9.30;;;;;;;18.45;100.00;100531.97;5038648;28;20032;-75
2023/10/03 04:57:34;;;;;;;21.70;7.57;;;;;;;18.35;100.00;100549.25;5021226;28;20125;-75
2023/10/03 05:00:00;;;;;;;25.60;9.27;;;;;;;18.43;100.00;100542.97;5019828;28;20421;-75
2023/10/03 05:02:28;;;;;;;22.13;9.43;;;;;;;18.46;100.00;100549.78;5023737;28;20051;-75
2023/10/03 05:04:53;;;;;;;21.58;7.70;;;;;;;18.55;100.00;100543.50;5019385;28;20029;-75
2023/10/03 05:07:19;;;;;;;16.38;7.75;;;;;;;18.46;100.00;100553.41;5023767;28;20035;-75
2023/10/03 05:09:44;;;;;;;14.07;7.43;;;;;;;18.38;100.00;100540.63;5020295;28;20032;-75
2023/10/03 05:12:10;;;;;;;19.48;7.47;;;;;;;18.45;100.00;100537.66;5023768;28;20040;-75
2023/10/03 05:14:42;;;;;;;19.58;8.00;;;;;;;18.45;100.00;100540.47;5021143;28;20022;-75
2023/10/03 05:17:07;;;;;;;21.15;7.50;;;;;;;18.39;100.00;100553.56;5025579;28;20502;-75
2023/10/03 05:19:33;;;;;;;22.85;7.55;;;;;;;18.41;100.00;100555.97;5023037;28;20048;-75
2023/10/03 05:21:59;;;;;;;17.88;7.32;;;;;;;18.34;100.00;100556.94;5020497;28;20115;-74
2023/10/03 05:24:24;;;;;;;22.27;8.02;;;;;;;18.34;100.00;100556.94;5020655;28;20083;-74
2023/10/03 05:26:51;;;;;;;19.20;8.18;;;;;;;18.36;100.00;100554.47;5023402;28;20068;-74
2023/10/03 05:29:17;;;;;;;20.98;6.93;;;;;;;18.31;100.00;100546.47;5027216;28;20045;-75
2023/10/03 05:31:43;;;;;;;20.08;7.07;;;;;;;18.31;100.00;100540.81;5029022;28;20375;-75
2023/10/03 05:34:09;;;;;;;21.63;7.63;;;;;;;18.25;100.00;100551.06;5025958;28;20109;-75
2023/10/03 05:36:35;;;;;;;18.23;7.40;;;;;;;18.28;100.00;100553.81;5021571;28;20018;-74
2023/10/03 05:39:00;;;;;;;16.48;7.30;;;;;;;18.30;100.00;100576.06;5021083;28;20033;-75
2023/10/03 05:41:26;;;;;;;13.25;6.57;;;;;;;18.26;100.00;100566.84;5019409;28;20022;-74
2023/10/03 05:43:54;;;;;;;17.25;7.70;;;;;;;18.22;100.00;100574.63;5016392;28;21124;-74
2023/10/03 05:46:20;;;;;;;23.70;8.13;;;;;;;18.20;100.00;100579.91;5012820;28;20383;-75
2023/10/03 05:48:46;;;;;;;18.48;6.28;;;;;;;18.28;100.00;100570.03;5016254;28;20118;-76
2023/10/03 05:51:12;;;;;;;21.10;6.43;;;;;;;18.26;100.00;100575.34;5019369;28;20033;-75
2023/10/03 05:53:40;;;;;;;16.17;5.97;;;;;;;18.18;100.00;100576.72;5017342;28;20482;-75
2023/10/03 05:56:06;;;;;;;17.27;5.95;;;;;;;18.21;100.00;100581.50;5018248;28;20030;-75
2023/10/03 05:58:32;;;;;;;16.08;6.13;;;;;;;18.16;100.00;100597.00;5022891;28;20385;-75
2023/10/03 06:00:58;;;;;;;17.38;6.38;;;;;;;18.18;100.00;100586.00;5022745;28;20061;-75
2023/10/03 06:03:23;;;;;;;15.80;5.28;;;;;;;18.15;100.00;100583.25;5021138;28;20040;-75
2023/10/03 06:05:50;;;;;;;14.02;5.53;;;;;;;18.16;100.00;100590.53;5015710;28;20064;-74
2023/10/03 06:08:15;;;;;;;12.85;5.60;;;;;;;18.15;100.00;100600.25;5023066;28;20126;-75
2023/10/03 06:10:41;;;;;;;14.23;5.93;;;;;;;18.15;100.00;100603.09;5014334;28;20435;-75
2023/10/03 06:13:09;;;;;;;19.15;5.57;;;;;;;18.10;100.00;100614.94;5014997;28;20376;-75
2023/10/03 06:15:36;;;;;;;15.10;5.07;;;;;;;18.11;100.00;100599.53;5023262;28;20030;-75
2023/10/03 06:18:02;;;;;;;15.65;5.45;;;;;;;18.11;100.00;100603.19;5016563;28;20021;-76
2023/10/03 06:20:28;;;;;;;11.45;4.78;;;;;;;18.10;100.00;100620.59;5015774;28;20044;-75
2023/10/03 06:22:54;;;;;;;12.80;4.57;;;;;;;18.10;100.00;100621.38;5021041;28;20476;-75
2023/10/03 06:25:19;;;;;;;9.90;4.72;;;;;;;18.11;100.00;100616.53;5007385;28;20068;-75
2023/10/03 06:27:45;;;;;;;13.32;4.40;;;;;;;18.09;100.00;100625.47;5015042;28;20048;-75
2023/10/03 06:30:11;;;;;;;16.08;3.90;;;;;;;18.12;100.00;100618.13;5017782;28;20029;-74
2023/10/03 06:32:36;;;;;;;11.70;4.15;;;;;;;18.12;100.00;100626.63;5016601;28;20381;-74
2023/10/03 06:35:04;;;;;;;10.27;4.40;;;;;;;18.04;100.00;100629.59;5019838;28;20059;-72
2023/10/03 06:37:30;;;;;;;11.07;5.45;;;;;;;18.04;100.00;100631.63;5023486;28;20021;-73
2023/10/03 06:39:56;;;;;;;10.50;4.53;;;;;;;18.03;100.00;100632.88;5020387;28;20029;-73
2023/10/03 06:42:23;;;;;;;13.20;5.97;;;;;;;18.02;100.00;100639.75;5022500;28;20059;-73
2023/10/03 06:44:49;;;;;;;11.15;5.30;;;;;;;18.03;100.00;100639.34;5013767;28;20468;-74
2023/10/03 06:47:14;;;;;;;15.98;5.45;;;;;;;18.01;100.00;100641.00;5014688;28;20104;-75
2023/10/03 06:49:40;;;;;;;11.45;5.03;;;;;;;18.03;100.00;100644.22;5016083;28;20074;-76
2023/10/03 06:52:05;;;;;;;10.95;4.72;;;;;;;18.00;100.00;100640.19;5019950;28;20172;-75
2023/10/03 06:54:30;;;;;;;12.73;4.80;;;;;;;18.01;100.00;100641.00;5021136;28;20478;-74
2023/10/03 06:56:56;;;;;;;10.63;4.45;;;;;;;18.01;100.00;100641.81;5016287;28;20036;-74
2023/10/03 06:59:22;;;;;;;16.75;4.93;;;;;;;18.04;100.00;100640.13;5026156;28;20036;-75
2023/10/03 07:01:47;;;;;;;10.95;4.65;;;;;;;18.05;100.00;100647.41;5023725;28;20084;-75
2023/10/03 07:04:12;;;;;;;12.10;4.68;;;;;;;18.10;100.00;100663.09;5023822;28;20024;-75
2023/10/03 07:06:38;;;;;;;11.15;4.60;;;;;;;18.13;100.00;100676.38;5016229;28;20040;-75
2023/10/03 07:09:07;;;;;;;14.27;4.97;;;;;;;18.12;100.00;100674.78;5016831;28;20018;-75
2023/10/03 07:11:33;;;;;;;16.30;4.30;;;;;;;18.11;100.00;100684.50;5015919;28;20649;-75
2023/10/03 07:13:59;;;;;;;14.45;4.75;;;;;;;18.13;100.00;100679.19;5022299;28;20025;-74
2023/10/03 07:16:24;;;;;;;11.23;4.07;;;;;;;18.13;100.00;100682.84;5022328;28;20042;-75
2023/10/03 07:18:50;;;;;;;10.65;4.38;;;;;;;18.12;100.00;100674.78;5012886;28;20124;-76
2023/10/03 07:21:15;;;;;;;10.57;3.97;;;;;;;18.08;100.00;100684.13;5010141;28;20041;-74
2023/10/03 07:23:41;;;;;;;10.30;4.13;;;;;;;18.06;100.00;100689.44;5013819;28;20492;-74
2023/10/03 07:26:07;;;;;;;12.20;5.07;;;;;;;18.03;100.00;100684.66;5023688;28;20049;-75
2023/10/03 07:28:33;;;;;;;9.05;4.45;;;;;;;18.01;100.00;100670.13;5034485;28;20442;-74
2023/10/03 07:30:58;;;;;;;7.85;4.10;;;;;;;18.02;100.00;100677.38;5038750;28;20473;-75
2023/10/03 07:33:23;;;;;;;14.00;3.53;;;;;;;18.03;100.00;100700.84;5016903;28;20021;-75
2023/10/03 07:35:49;;;;;;;8.82;3.80;;;;;;;18.01;100.00;100704.09;5022180;28;20034;-75
2023/10/03 07:38:15;;;;;;;8.35;2.80;;;;;;;17.98;100.00;100699.31;5023223;28;20540;-74
2023/10/03 07:40:41;;;;;;;7.93;3.13;;;;;;;17.99;100.00;100715.06;5020174;28;20032;-75
2023/10/03 07:43:10;;;;;;;9.10;3.30;;;;;;;17.98;100.00;100727.63;5019078;28;20374;-75
2023/10/03 07:45:40;;;;;;;7.43;3.05;;;;;;;18.01;100.00;100726.75;5022006;28;20426;-75
2023/10/03 07:48:06;;;;;;;13.73;3.38;;;;;;;18.00;100.00;100725.16;5014301;28;20421;-76
2023/10/03 07:50:35;;;;;;;8.63;2.63;;;;;;;18.04;100.00;100736.41;5023432;28;20792;-75
2023/10/03 07:53:00;;;;;;;7.60;3.47;;;;;;;18.02;100.00;100739.69;5022818;28;20067;-75
2023/10/03 07:55:26;;;;;;;5.10;2.58;;;;;;;17.93;100.00;100742.28;5026392;28;20159;-75
2023/10/03 07:57:54;;;;;;;6.05;2.80;;;;;;;17.90;100.00;100740.31;5021938;28;20036;-74
2023/10/03 08:00:20;;;;;;;8.55;3.30;;;;;;;17.84;100.00;100740.00;5003328;28;20086;-74
2023/10/03 08:02:49;;;;;;;5.93;2.70;;;;;;;17.75;100.00;100778.56;5014230;28;20021;-72
2023/10/03 08:05:15;;;;;;;8.73;3.17;;;;;;;17.70;100.00;100779.06;5014262;28;20049;-72
2023/10/03 08:07:42;;;;;;;5.90;2.60;;;;;;;17.65;100.00;100783.19;5010943;28;20137;-72
2023/10/03 08:10:08;;;;;;;8.80;2.70;;;;;;;17.43;100.00;100800.50;5019613;28;20587;-73
2023/10/03 08:12:38;;;;;;;4.10;1.80;;;;;;;17.38;100.00;100798.16;5015927;28;20030;-75
2023/10/03 08:15:04;;;;;;;7.95;2.60;;;;;;;17.41;100.00;100807.81;5021956;28;20083;-74
2023/10/03 08:17:40;;;;;;;7.05;2.35;;;;;;;17.25;100.00;100840.38;5022987;28;20457;-73
2023/10/03 08:20:06;;;;;;;10.32;1.70;;;;;;;17.39;100.00;100838.56;5017808;28;20032;-73
2023/10/03 08:22:32;;;;;;;5.22;2.25;;;;;;;17.27;100.00;100846.41;5019345;28;20021;-73
2023/10/03 08:24:57;;;;;;;4.55;1.98;;;;;;;17.31;100.00;100842.69;5022788;28;20033;-72
2023/10/03 08:27:26;;;;;;;9.68;2.40;;;;;;;17.35;100.00;100849.13;5017185;28;20037;-74
2023/10/03 08:29:53;;;;;;;7.65;2.72;;;;;;;17.32;100.00;100869.78;5024150;28;20057;-72
2023/10/03 08:32:19;;;;;;;7.72;2.05;;;;;;;17.22;100.00;100883.66;5020379;28;20495;-72
2023/10/03 08:34:45;;;;;;;7.32;1.80;;;;;;;17.17;100.00;100901.06;5021197;28;20022;-73
2023/10/03 08:37:19;;;;;;;3.08;1.70;;;;;;;17.03;100.00;100902.06;5023909;28;20103;-73
2023/10/03 08:39:51;;;;;;;6.32;1.48;;;;;;;16.77;100.00;100895.03;5021524;28;20574;-72
2023/10/03 08:42:20;;;;;;;5.03;1.77;;;;;;;16.74;100.00;100881.78;5040186;28;20045;-72
2023/10/03 08:44:52;;;;;;;4.03;1.10;;;;;;;16.94;100.00;100910.22;5028954;28;20327;-73
2023/10/03 08:47:28;;;;;;;5.00;0.80;;;;;;;17.02;100.00;100916.63;5022431;28;20544;-73
2023/10/03 08:50:10;;;;;;;2.05;0.73;;;;;;;16.90;100.00;100922.81;5020204;28;20103;-73
2023/10/03 08:52:47;;;;;;;6.28;1.80;;;;;;;16.88;100.00;100928.09;5016517;28;20026;-72
2023/10/03 08:55:14;;;;;;;3.25;0.80;;;;;;;16.74;100.00;100943.94;5020908;28;20171;-72
2023/10/03 08:57:40;;;;;;;4.22;0.82;;;;;;;16.76;100.00;100952.81;5025485;28;20385;-72
2023/10/03 09:00:09;;;;;;;4.13;1.33;;;;;;;16.80;100.00;100955.59;5015696;28;20029;-72
2023/10/03 09:02:45;;;;;;;3.83;1.00;;;;;;;16.78;100.00;100969.34;5031281;28;20424;-74
2023/10/03 09:05:19;;;;;;;3.97;0.63;;;;;;;16.68;100.00;100982.38;5021530;28;20473;-73
2023/10/03 09:07:45;;;;;;;2.55;1.00;;;;;;;16.70;100.00;100979.09;5021241;28;20029;-74
2023/10/03 09:10:22;;;;;;;2.45;0.75;;;;;;;16.68;100.00;100999.31;5004502;28;20454;-76
2023/10/03 09:12:51;;;;;;;3.03;0.70;;;;;;;16.63;100.00;100999.75;5017465;28;20029;-76
2023/10/03 09:15:23;;;;;;;2.88;0.52;;;;;;;16.60;100.00;101017.56;5016995;28;20029;-77
2023/10/03 09:17:52;;;;;;;3.70;0.60;;;;;;;16.66;100.00;101019.50;5013146;28;20034;-76
2023/10/03 09:20:21;;;;;;;2.53;0.65;;;;;;;16.57;100.00;101024.84;5024061;28;20037;-77
2023/10/03 09:22:47;;;;;;;1.65;0.50;;;;;;;16.67;100.00;101038.09;5034095;28;20552;-77
2023/10/03 09:25:12;;;;;;;3.97;0.40;;;;;;;16.69;100.00;101040.47;5023530;28;20121;-77
2023/10/03 09:27:39;;;;;;;1.02;0.93;;;;;;;16.50;100.00;101041.03;5019589;28;20051;-77
2023/10/03 09:30:22;;;;;;;5.57;0.70;;;;;;;16.48;100.00;101057.59;5027966;28;20044;-77
2023/10/03 09:32:49;;;;;;;3.70;1.42;;;;;;;16.57;100.00;101057.94;5027120;28;20060;-77
2023/10/03 09:35:15;;;;;;;3.50;0.60;;;;;;;16.46;100.00;101056.00;5030251;28;20036;-77
2023/10/03 09:37:43;;;;;;;3.38;0.63;;;;;;;16.40;100.00;101068.16;5029265;28;20486;-78
2023/10/03 09:40:16;;;;;;;2.53;0.73;;;;;;;16.62;100.00;101065.97;5016886;28;20029;-78
2023/10/03 09:42:48;;;;;;;1.05;0.25;;;;;;;16.53;100.00;101071.28;5022638;28;20092;-78
2023/10/03 09:45:18;;;;;;;4.68;0.65;;;;;;;16.21;100.00;101072.28;5033080;28;20029;-78
2023/10/03 09:47:44;;;;;;;1.40;0.40;;;;;;;16.27;100.00;101090.41;5029625;28;20036;-77
2023/10/03 09:50:12;;;;;;;3.38;0.80;;;;;;;16.18;100.00;101101.38;5033207;28;20030;-77
2023/10/03 09:52:39;;;;;;;2.10;0.90;;;;;;;16.20;100.00;101096.91;5018858;28;20072;-77
2023/10/03 09:55:17;;;;;;;2.92;0.47;;;;;;;16.17;100.00;101096.94;5015014;28;20034;-77
2023/10/03 09:57:52;;;;;;;0.98;0.30;;;;;;;16.34;100.00;101115.81;5021512;28;20030;-77
2023/10/03 10:03:06;;;;;;;1.83;1.05;;;;;;;16.32;100.00;101135.19;5016643;28;20394;-77
2023/10/03 10:05:32;;;;;;;1.55;0.40;;;;;;;16.38;100.00;101138.38;5031016;28;20031;-77
2023/10/03 10:08:09;;;;;;;2.67;0.60;;;;;;;16.41;100.00;101135.53;5028042;28;20398;-77
2023/10/03 10:10:35;;;;;;;3.00;0.40;;;;;;;16.29;100.00;101136.00;5030791;28;20520;-76
2023/10/03 10:13:13;;;;;;;1.13;0.68;;;;;;;16.32;100.00;101138.03;5019493;28;20034;-77
2023/10/03 10:16:00;;;;;;;0.77;0.30;;;;;;;16.29;100.00;101150.13;5027881;28;20112;-78
2023/10/03 10:18:44;;;;;;;1.85;0.30;;;;;;;16.16;100.00;101160.28;5031678;28;20037;-76
2023/10/03 10:21:30;;;;;;;3.30;0.85;;;;;;;16.08;100.00;101167.16;5019612;28;20075;-74
2023/10/03 10:24:15;;;;;;;4.85;0.43;;;;;;;16.24;100.00;101170.34;5022821;28;20386;-75
2023/10/03 10:26:42;;;;;;;1.73;0.55;;;;;;;16.10;100.00;101179.66;5025713;28;20449;-75
2023/10/03 10:29:09;;;;;;;3.67;0.60;;;;;;;16.01;100.00;101191.38;5025828;28;20121;-75
2023/10/03 10:31:37;;;;;;;2.00;0.60;;;;;;;16.09;100.00;101191.38;5020346;28;21152;-74
2023/10/03 10:34:22;;;;;;;2.45;0.82;;;;;;;15.97;100.00;101195.44;5016242;28;20033;-75
2023/10/03 10:37:03;;;;;;;0.60;0.50;;;;;;;15.88;100.00;101214.84;5007013;28;20120;-75
2023/10/03 10:39:56;;;;;;;2.53;0.50;;;;;;;15.98;100.00;101200.69;5016799;28;20027;-75
2023/10/03 10:42:25;;;;;;;1.48;0.30;;;;;;;15.94;100.00;101204.72;5017855;28;20033;-75
2023/10/03 10:45:14;;;;;;;2.92;0.60;;;;;;;15.98;100.00;101211.97;5020677;28;20451;-76
2023/10/03 10:47:45;;;;;;;2.13;0.60;;;;;;;16.17;100.00;101201.41;5009045;28;20037;-75
2023/10/03 10:50:11;;;;;;;2.05;0.55;;;;;;;16.11;100.00;101198.22;5021401;28;20029;-75
2023/10/03 10:52:53;;;;;;;1.98;0.68;;;;;;;16.13;100.00;101197.78;5023608;28;20575;-75
2023/10/03 10:55:22;;;;;;;0.65;0.40;;;;;;;16.20;100.00;101203.44;5020439;28;20029;-75
2023/10/03 10:58:08;;;;;;;1.65;0.63;;;;;;;16.23;100.00;101211.09;5028844;28;20068;-76
2023/10/03 11:00:34;;;;;;;1.63;0.88;;;;;;;16.27;100.00;101211.88;5020531;28;20087;-76
2023/10/03 11:03:02;;;;;;;3.53;0.50;;;;;;;16.28;100.00;101216.31;5010697;28;20069;-75
2023/10/03 11:05:43;;;;;;;2.63;0.63;;;;;;;16.06;100.00;101229.69;5011305;28;20021;-76
2023/10/03 11:08:09;;;;;;;0.40;0.35;;;;;;;16.12;100.00;101238.56;5015527;28;20025;-76
2023/10/03 11:10:34;;;;;;;2.88;0.50;;;;;;;15.75;100.00;101248.31;5015176;28;20107;-75
2023/10/03 11:13:03;;;;;;;3.22;0.45;;;;;;;15.52;100.00;101245.88;5022576;28;20030;-76
2023/10/03 11:15:29;;;;;;;1.25;0.55;;;;;;;15.43;100.00;101238.63;5018009;28;20030;-75
2023/10/03 11:17:55;;;;;;;2.60;0.90;;;;;;;15.50;100.00;101257.56;5024081;28;20056;-76
2023/10/03 11:20:20;;;;;;;3.03;0.70;;;;;;;15.76;100.00;101262.00;5015385;28;20029;-76
2023/10/03 11:22:47;;;;;;;1.42;0.50;;;;;;;15.81;100.00;101272.06;5020275;28;20124;-76